Time;durP1;ratioP1;P1;durP2;ratioP2;P2;SDS_P1;SDS_P2;PMS_P1;PMS_P2;Temp;Humidity;BMP_temperature;BMP_pressure;BME280_temperature;BME280_humidity;BME280_pressure;Samples;Min_cycle;Max_cycle;Signal;HPM_P1;HPM_P2
2021/06/23 00:00:25;;;;;;;24.08;8.60;;;614.60;2432.00;;;;;;5071603;28;20044;-71
2021/06/23 00:02:50;;;;;;;22.52;8.48;;;614.60;2432.00;;;;;;5071621;28;20087;-71
2021/06/23 00:05:17;;;;;;;21.10;9.10;;;614.60;2432.00;;;;;;5071262;28;20116;-70
2021/06/23 00:07:43;;;;;;;26.67;8.82;;;614.50;2432.00;;;;;;5071667;28;20025;-70
2021/06/23 00:10:09;;;;;;;26.40;9.07;;;614.50;2432.00;;;;;;5071740;28;20135;-73
2021/06/23 00:12:35;;;;;;;27.40;8.32;;;614.50;2432.00;;;;;;5071980;28;20086;-72
2021/06/23 00:15:02;;;;;;;24.45;8.57;;;614.40;2432.00;;;;;;5071483;28;20016;-76
2021/06/23 00:17:28;;;;;;;21.67;8.88;;;614.40;2432.00;;;;;;5071688;28;20119;-76
2021/06/23 00:19:55;;;;;;;26.27;8.63;;;614.40;2432.00;;;;;;5071627;28;20040;-71
2021/06/23 00:22:20;;;;;;;21.58;7.50;;;614.40;2432.00;;;;;;5073195;28;20017;-71
2021/06/23 00:24:46;;;;;;;25.35;8.23;;;589.70;2432.00;;;;;;5075384;28;20029;-76
2021/06/23 00:27:12;;;;;;;22.67;8.50;;;589.70;2432.00;;;;;;5075113;28;20390;-74
2021/06/23 00:29:37;;;;;;;21.92;8.88;;;589.70;2432.00;;;;;;5075105;28;20024;-75
2021/06/23 00:32:04;;;;;;;26.55;8.95;;;589.60;2432.00;;;;;;5075045;28;20599;-70
2021/06/23 00:34:31;;;;;;;25.35;9.85;;;589.50;2432.00;;;;;;5074910;28;20099;-72
2021/06/23 00:36:56;;;;;;;24.95;9.88;;;589.50;2432.00;;;;;;5075085;28;20360;-77
2021/06/23 00:39:23;;;;;;;24.23;9.48;;;589.20;2432.00;;;;;;5074756;28;20027;-73
2021/06/23 00:41:49;;;;;;;24.95;9.93;;;589.20;2432.00;;;;;;5074994;28;20099;-73
2021/06/23 00:44:16;;;;;;;25.27;9.57;;;589.10;2432.00;;;;;;5074947;28;20112;-73
2021/06/23 00:46:43;;;;;;;20.60;9.40;;;589.20;2432.00;;;;;;5074702;28;20024;-77
2021/06/23 00:49:10;;;;;;;21.83;9.65;;;589.20;2432.00;;;;;;5074756;28;20021;-77
2021/06/23 00:51:36;;;;;;;22.70;9.75;;;589.30;2432.00;;;;;;5074735;28;20021;-76
2021/06/23 00:54:09;;;;;;;21.42;9.45;;;589.20;2432.00;;;;;;5074997;28;20025;-75
2021/06/23 00:56:35;;;;;;;20.27;9.73;;;589.20;2432.00;;;;;;5074449;28;20031;-74
2021/06/23 00:59:02;;;;;;;20.27;9.95;;;589.10;2432.00;;;;;;5075009;28;20112;-72
2021/06/23 01:01:31;;;;;;;21.75;9.35;;;589.20;2432.00;;;;;;5074483;28;20061;-74
2021/06/23 01:03:57;;;;;;;20.23;9.18;;;589.30;2432.00;;;;;;5074558;28;20028;-73
2021/06/23 01:06:23;;;;;;;22.25;9.45;;;589.30;2432.00;;;;;;5074544;28;20031;-72
2021/06/23 01:08:50;;;;;;;22.65;9.02;;;589.20;2432.00;;;;;;5074247;28;20479;-75
2021/06/23 01:11:17;;;;;;;26.88;9.02;;;589.20;2432.00;;;;;;5074297;28;20048;-75
2021/06/23 01:14:05;;;;;;;21.00;9.27;;;589.20;2432.00;;;;;;5074515;28;20101;-73
2021/06/23 01:16:37;;;;;;;27.30;9.35;;;589.20;2432.00;;;;;;5074709;28;20364;-72
2021/06/23 01:19:08;;;;;;;23.17;9.25;;;589.20;2432.00;;;;;;5074402;28;20055;-72
2021/06/23 01:21:34;;;;;;;20.92;9.70;;;589.10;2432.00;;;;;;5074231;28;20048;-72
2021/06/23 01:24:00;;;;;;;23.10;9.40;;;589.00;2432.00;;;;;;5073894;28;20383;-73
2021/06/23 01:26:26;;;;;;;22.30;9.30;;;588.90;2432.00;;;;;;5074198;28;20021;-72
2021/06/23 01:28:51;;;;;;;23.63;8.82;;;588.90;2432.00;;;;;;5074022;28;20099;-71
2021/06/23 01:31:19;;;;;;;24.50;9.15;;;588.90;2432.00;;;;;;5074051;28;20016;-73
2021/06/23 01:33:46;;;;;;;22.00;9.48;;;588.80;2432.00;;;;;;5073610;28;20016;-73
2021/06/23 01:36:11;;;;;;;22.15;8.80;;;588.80;2432.00;;;;;;5073737;28;20029;-70
2021/06/23 01:38:37;;;;;;;20.20;8.98;;;588.90;2432.00;;;;;;5073884;28;20082;-70
2021/06/23 01:41:03;;;;;;;25.55;9.23;;;589.00;2432.00;;;;;;5073667;28;20028;-71
2021/06/23 01:43:29;;;;;;;20.85;8.65;;;589.00;2432.00;;;;;;5073695;28;20025;-73
2021/06/23 01:45:55;;;;;;;25.67;9.00;;;589.10;2432.00;;;;;;5073696;28;20032;-73
2021/06/23 01:48:24;;;;;;;25.33;9.38;;;589.10;2432.00;;;;;;5073388;28;20020;-72
2021/06/23 01:50:58;;;;;;;24.15;9.40;;;589.10;2432.00;;;;;;5073668;28;20067;-72
2021/06/23 01:53:26;;;;;;;21.23;9.23;;;588.90;2432.00;;;;;;5073664;28;20048;-71
2021/06/23 01:55:52;;;;;;;23.20;9.52;;;588.80;2432.00;;;;;;5073566;28;20433;-72
2021/06/23 01:58:21;;;;;;;18.30;8.23;;;588.80;2432.00;;;;;;5073258;28;20028;-72
2021/06/23 02:01:16;;;;;;;20.77;8.25;;;588.90;2432.00;;;;;;5073383;28;20060;-71
2021/06/23 02:03:53;;;;;;;18.42;8.43;;;588.90;2432.00;;;;;;5073243;28;20094;-72
2021/06/23 02:06:49;;;;;;;24.52;8.70;;;589.00;2432.00;;;;;;5073516;28;20028;-71
2021/06/23 02:09:36;;;;;;;23.85;8.82;;;589.00;2432.00;;;;;;5062110;28;20116;-72
2021/06/23 02:12:25;;;;;;;19.98;8.52;;;588.90;2432.00;;;;;;5072923;28;20044;-76
2021/06/23 02:15:10;;;;;;;23.13;9.40;;;588.90;2432.00;;;;;;5032852;28;20045;-75
2021/06/23 02:17:39;;;;;;;25.20;8.60;;;588.90;2432.00;;;;;;5060403;28;20059;-76
2021/06/23 02:20:05;;;;;;;26.20;8.77;;;588.80;2432.00;;;;;;5072955;28;20036;-75
2021/06/23 02:22:33;;;;;;;22.70;9.00;;;564.10;2432.00;;;;;;5072771;28;20139;-76
2021/06/23 02:25:08;;;;;;;22.33;8.65;;;564.10;2432.00;;;;;;5072953;28;20029;-72
2021/06/23 02:27:34;;;;;;;19.80;8.10;;;588.80;2432.00;;;;;;5072781;28;20043;-71
2021/06/23 02:30:00;;;;;;;24.25;8.90;;;588.80;2432.00;;;;;;5072790;28;20012;-71
2021/06/23 02:32:29;;;;;;;21.10;8.40;;;588.80;2432.00;;;;;;5072856;28;20017;-71
2021/06/23 02:35:00;;;;;;;25.45;8.45;;;564.10;2432.00;;;;;;5072894;28;20047;-73
2021/06/23 02:37:26;;;;;;;21.83;8.93;;;564.00;2432.00;;;;;;5072735;28;20052;-72
2021/06/23 02:39:53;;;;;;;22.13;8.55;;;564.00;2432.00;;;;;;5072616;28;20490;-73
2021/06/23 02:42:20;;;;;;;21.60;8.60;;;564.00;2432.00;;;;;;5072797;28;20150;-72
2021/06/23 02:44:46;;;;;;;21.65;8.80;;;564.10;2432.00;;;;;;5053863;28;20028;-73
2021/06/23 02:47:16;;;;;;;25.55;9.10;;;564.10;2432.00;;;;;;5072555;28;20117;-72
2021/06/23 02:49:42;;;;;;;22.13;8.68;;;564.10;2432.00;;;;;;5061573;28;20029;-76
2021/06/23 02:52:09;;;;;;;20.08;8.70;;;564.00;2432.00;;;;;;5052732;28;20036;-77
2021/06/23 02:54:35;;;;;;;22.65;8.13;;;564.10;2432.00;;;;;;5058046;28;20021;-73
2021/06/23 02:57:01;;;;;;;23.15;8.85;;;564.10;2432.00;;;;;;5071342;28;20025;-77
2021/06/23 02:59:27;;;;;;;22.45;8.70;;;563.80;2432.00;;;;;;5059447;28;20501;-78
2021/06/23 03:01:53;;;;;;;21.88;8.27;;;563.70;2432.00;;;;;;5072551;28;20017;-78
2021/06/23 03:04:19;;;;;;;22.08;8.68;;;563.70;2432.00;;;;;;5072290;28;20462;-73
2021/06/23 03:06:45;;;;;;;26.27;8.98;;;563.80;2432.00;;;;;;5061376;28;20412;-77
2021/06/23 03:09:11;;;;;;;21.55;8.77;;;563.80;2432.00;;;;;;5069133;28;20020;-80
2021/06/23 03:11:38;;;;;;;20.48;7.65;;;563.90;2432.00;;;;;;5054373;28;20537;-73
2021/06/23 03:14:05;;;;;;;18.95;8.10;;;563.80;2432.00;;;;;;5072191;28;20024;-73
2021/06/23 03:16:31;;;;;;;22.73;8.55;;;563.80;2432.00;;;;;;5072347;28;20433;-72
2021/06/23 03:18:57;;;;;;;22.92;9.13;;;563.80;2432.00;;;;;;5072640;28;20043;-81
2021/06/23 03:21:23;;;;;;;26.85;8.50;;;563.80;2432.00;;;;;;5072469;28;20016;-73
2021/06/23 03:23:50;;;;;;;23.90;9.10;;;563.80;2432.00;;;;;;5062839;28;20029;-80
2021/06/23 03:26:17;;;;;;;24.83;8.82;;;563.50;2432.00;;;;;;5072031;28;20158;-78
2021/06/23 03:28:43;;;;;;;21.80;8.60;;;563.50;2432.00;;;;;;5072522;28;20391;-78
2021/06/23 03:31:08;;;;;;;18.63;8.60;;;563.60;2432.00;;;;;;5071931;28;20032;-73
2021/06/23 03:33:34;;;;;;;20.13;8.82;;;563.70;2432.00;;;;;;5072246;28;20025;-78
2021/06/23 03:36:00;;;;;;;24.85;9.75;;;563.80;2432.00;;;;;;5072222;28;20475;-72
2021/06/23 03:38:26;;;;;;;23.83;9.20;;;563.80;2432.00;;;;;;5071998;28;20034;-73
2021/06/23 03:40:52;;;;;;;23.40;9.50;;;563.90;2432.00;;;;;;5072280;28;20404;-79
2021/06/23 03:43:19;;;;;;;23.08;12.57;;;564.00;2432.00;;;;;;5071984;28;20021;-73
2021/06/23 03:45:46;;;;;;;25.92;10.30;;;564.00;2432.00;;;;;;5072253;28;20024;-73
2021/06/23 03:48:12;;;;;;;25.15;9.65;;;563.90;2432.00;;;;;;5071796;28;20037;-72
2021/06/23 03:50:38;;;;;;;24.50;9.32;;;563.80;2432.00;;;;;;5072022;28;20091;-73
2021/06/23 03:53:05;;;;;;;20.38;8.98;;;563.90;2432.00;;;;;;5072152;28;20025;-76
2021/06/23 03:55:32;;;;;;;20.30;8.80;;;564.00;2432.00;;;;;;5072533;28;20436;-73
2021/06/23 03:57:58;;;;;;;27.02;9.70;;;588.80;2432.00;;;;;;5064662;28;20029;-77
2021/06/23 04:00:26;;;;;;;33.78;15.45;;;588.90;2432.00;;;;;;5054872;28;20077;-77
2021/06/23 04:02:53;;;;;;;44.72;21.80;;;589.20;2432.00;;;;;;5075750;28;20830;-73
2021/06/23 04:05:19;;;;;;;28.42;11.40;;;589.50;2432.00;;;;;;5075807;28;20414;-76
2021/06/23 04:07:45;;;;;;;20.88;8.60;;;589.70;2432.00;;;;;;5075509;28;20383;-82
2021/06/23 04:10:12;;;;;;;21.95;9.00;;;589.70;2432.00;;;;;;5075564;28;20037;-82
2021/06/23 04:12:38;;;;;;;25.63;9.60;;;589.70;2432.00;;;;;;5075468;28;20048;-81
2021/06/23 04:15:06;;;;;;;28.45;9.30;;;614.40;2432.00;;;;;;5075783;28;20150;-76
2021/06/23 04:17:32;;;;;;;28.35;9.63;;;614.60;2432.00;;;;;;5075250;28;20036;-76
2021/06/23 04:19:58;;;;;;;23.63;9.63;;;614.70;2432.00;;;;;;5075416;28;20035;-82
2021/06/23 04:22:25;;;;;;;21.73;9.35;;;614.80;2432.00;;;;;;5075256;28;20024;-83
2021/06/23 04:24:55;;;;;;;26.67;9.77;;;614.90;2432.00;;;;;;5075212;28;20033;-84
2021/06/23 04:27:21;;;;;;;23.20;9.13;;;614.70;2432.00;;;;;;5075068;28;20505;-81
2021/06/23 04:29:48;;;;;;;20.70;8.32;;;614.90;2432.00;;;;;;5075227;28;20036;-72
2021/06/23 04:32:14;;;;;;;22.58;8.95;;;615.00;2432.00;;;;;;5075419;28;20103;-71
2021/06/23 04:34:40;;;;;;;22.48;9.00;;;615.20;2432.00;;;;;;5075250;28;20442;-79
2021/06/23 04:37:05;;;;;;;23.02;9.63;;;615.10;2432.00;;;;;;5057305;28;20025;-81
2021/06/23 04:39:31;;;;;;;24.35;8.88;;;614.80;2432.00;;;;;;5074866;28;20042;-77
2021/06/23 04:41:57;;;;;;;24.55;9.63;;;614.80;2432.00;;;;;;5075025;28;20029;-78
2021/06/23 04:44:22;;;;;;;23.15;9.52;;;614.80;2432.00;;;;;;5075132;28;20028;-75
2021/06/23 04:46:48;;;;;;;28.63;9.32;;;614.80;2432.00;;;;;;5074922;28;20116;-73
2021/06/23 04:49:14;;;;;;;21.67;8.27;;;615.00;2432.00;;;;;;5074856;28;20029;-72
2021/06/23 04:51:39;;;;;;;25.50;8.70;;;615.30;2432.00;;;;;;5074933;28;20048;-71
2021/06/23 04:54:06;;;;;;;25.85;8.13;;;640.00;2432.00;;;;;;5074648;28;20023;-74
2021/06/23 04:56:31;;;;;;;19.02;7.57;;;640.30;2432.00;;;;;;5074601;28;20021;-72
2021/06/23 04:58:58;;;;;;;23.95;7.95;;;640.60;2432.00;;;;;;5060547;28;20032;-72
2021/06/23 05:01:24;;;;;;;23.10;8.07;;;640.70;2432.00;;;;;;5074579;28;20029;-73
2021/06/23 05:03:50;;;;;;;23.70;7.55;;;640.70;2432.00;;;;;;5074733;28;20032;-72
2021/06/23 05:06:16;;;;;;;23.33;7.65;;;640.90;2432.00;;;;;;5074522;28;20020;-72
2021/06/23 05:08:42;;;;;;;20.67;7.88;;;665.60;2432.00;;;;;;5073530;28;20086;-74
2021/06/23 05:11:08;;;;;;;26.67;7.82;;;665.70;2432.00;;;;;;5074282;28;20094;-72
2021/06/23 05:13:34;;;;;;;27.17;7.68;;;665.70;2432.00;;;;;;5074443;28;20024;-74
2021/06/23 05:16:01;;;;;;;26.50;8.43;;;666.00;2432.00;;;;;;5074679;28;20024;-74
2021/06/23 05:18:29;;;;;;;32.45;7.78;;;666.00;2432.00;;;;;;5056216;28;20028;-72
2021/06/23 05:20:56;;;;;;;21.77;7.60;;;666.00;2432.00;;;;;;5074157;28;20044;-72
2021/06/23 05:23:22;;;;;;;22.50;7.38;;;666.10;2432.00;;;;;;5074214;28;20021;-72
2021/06/23 05:25:48;;;;;;;23.83;7.47;;;666.20;2432.00;;;;;;5073836;28;20560;-80
2021/06/23 05:28:14;;;;;;;25.27;8.00;;;666.30;2432.00;;;;;;5073996;28;20031;-80
2021/06/23 05:30:40;;;;;;;29.50;7.68;;;666.20;2432.00;;;;;;5073936;28;20445;-83
2021/06/23 05:33:06;;;;;;;25.35;7.28;;;666.30;2432.00;;;;;;5060844;28;20494;-82
2021/06/23 05:35:31;;;;;;;29.10;8.48;;;666.50;2432.00;;;;;;5073980;28;20470;-82
2021/06/23 05:37:57;;;;;;;21.40;7.18;;;666.50;2432.00;;;;;;5073738;28;20434;-83
2021/06/23 05:40:23;;;;;;;24.85;7.95;;;691.30;2432.00;;;;;;5055941;28;20032;-83
2021/06/23 05:42:48;;;;;;;23.65;7.47;;;691.60;2432.00;;;;;;5073541;28;20024;-76
2021/06/23 05:45:14;;;;;;;23.52;7.22;;;691.80;2432.00;;;;;;5073816;28;20108;-74
2021/06/23 05:47:40;;;;;;;23.98;7.53;;;691.80;2432.00;;;;;;5073746;28;20386;-73
2021/06/23 05:50:07;;;;;;;23.75;7.43;;;692.00;2432.00;;;;;;5073815;28;20029;-73
2021/06/23 05:52:33;;;;;;;29.30;7.97;;;716.80;2432.00;;;;;;5073916;28;20386;-74
2021/06/23 05:54:58;;;;;;;27.95;7.95;;;716.90;2432.00;;;;;;5073368;28;20035;-73
2021/06/23 05:57:24;;;;;;;23.65;7.72;;;717.00;2432.00;;;;;;5066819;28;20215;-73
2021/06/23 05:59:50;;;;;;;25.92;7.05;;;716.90;2432.00;;;;;;5066034;28;20111;-74
2021/06/23 06:02:15;;;;;;;31.15;8.35;;;716.90;2432.00;;;;;;5073332;28;20025;-75
2021/06/23 06:04:41;;;;;;;28.25;7.40;;;717.00;2432.00;;;;;;5073330;28;20115;-73
2021/06/23 06:07:07;;;;;;;29.23;7.53;;;717.10;2432.00;;;;;;5073313;28;20025;-73
2021/06/23 06:09:32;;;;;;;27.45;7.68;;;717.20;2432.00;;;;;;5073291;28;20031;-74
2021/06/23 06:11:58;;;;;;;27.25;7.60;;;717.30;2432.00;;;;;;5072934;28;20045;-74
2021/06/23 06:14:24;;;;;;;23.30;7.45;;;717.40;2432.00;;;;;;5073417;28;20020;-73
2021/06/23 06:16:50;;;;;;;26.67;7.65;;;717.70;2432.00;;;;;;5073243;28;20479;-74
2021/06/23 06:19:16;;;;;;;22.95;7.85;;;742.40;2432.00;;;;;;5073255;28;20543;-73
2021/06/23 06:21:41;;;;;;;26.38;7.72;;;742.40;2432.00;;;;;;5073175;28;20505;-74
2021/06/23 06:24:07;;;;;;;25.70;7.65;;;742.50;2432.00;;;;;;5054898;28;20398;-74
2021/06/23 06:26:33;;;;;;;26.40;7.70;;;;;;;;;;5073079;28;20086;-74
2021/06/23 06:28:59;;;;;;;23.23;8.00;;;742.60;2432.00;;;;;;5072701;28;20482;-73
2021/06/23 06:31:25;;;;;;;23.50;7.22;;;742.60;2432.00;;;;;;5072913;28;20078;-74
2021/06/23 06:33:51;;;;;;;29.20;7.60;;;742.60;2432.00;;;;;;5073112;28;20021;-73
2021/06/23 06:36:18;;;;;;;23.30;7.28;;;742.90;2432.00;;;;;;5072690;28;20008;-74
2021/06/23 06:38:44;;;;;;;25.70;7.53;;;742.90;2432.00;;;;;;5073128;28;20036;-73
2021/06/23 06:41:10;;;;;;;28.27;7.50;;;742.90;2432.00;;;;;;5072651;28;20451;-74
2021/06/23 06:43:36;;;;;;;25.60;7.95;;;743.10;2432.00;;;;;;5072713;28;20032;-74
2021/06/23 06:46:02;;;;;;;23.95;7.35;;;768.30;2432.00;;;;;;5072723;28;20094;-74
2021/06/23 06:48:28;;;;;;;31.23;7.82;;;743.10;2432.00;;;;;;5072732;28;20463;-73
2021/06/23 06:50:53;;;;;;;27.70;7.15;;;768.10;2432.00;;;;;;5072641;28;20435;-73
2021/06/23 06:53:19;;;;;;;24.40;7.43;;;768.80;2432.00;;;;;;5072751;28;20024;-74
2021/06/23 06:55:46;;;;;;;25.92;7.05;;;768.40;2432.00;;;;;;5072660;28;20028;-75
2021/06/23 06:58:13;;;;;;;25.92;7.20;;;768.60;2432.00;;;;;;5059398;28;20021;-73
2021/06/23 07:00:39;;;;;;;29.30;7.40;;;768.70;2432.00;;;;;;5059360;28;20593;-72
2021/06/23 07:03:05;;;;;;;27.80;7.00;;;793.70;2432.00;;;;;;5072425;28;20372;-74
2021/06/23 07:05:31;;;;;;;24.55;7.65;;;793.70;2432.00;;;;;;5072105;28;20112;-73
2021/06/23 07:07:57;;;;;;;27.60;7.22;;;;;;;;;;5072170;28;20131;-73
2021/06/23 07:10:23;;;;;;;26.08;7.05;;;794.10;2432.00;;;;;;5054123;28;20392;-74
2021/06/23 07:12:49;;;;;;;25.10;6.75;;;793.70;2432.00;;;;;;5072255;28;20028;-74
2021/06/23 07:15:15;;;;;;;25.52;7.22;;;793.90;2432.00;;;;;;5072281;28;20024;-74
2021/06/23 07:17:41;;;;;;;28.27;7.30;;;793.80;2432.00;;;;;;5072008;28;20047;-74
2021/06/23 07:20:07;;;;;;;23.95;7.60;;;793.80;2432.00;;;;;;5072257;28;20059;-74
2021/06/23 07:22:33;;;;;;;28.80;7.97;;;793.70;2432.00;;;;;;5070455;28;20033;-82
2021/06/23 07:24:59;;;;;;;29.20;7.35;;;793.90;2432.00;;;;;;5069912;28;20028;-81
2021/06/23 07:27:26;;;;;;;25.33;6.75;;;794.30;2432.00;;;;;;5060743;28;20037;-75
2021/06/23 07:29:52;;;;;;;21.63;6.75;;;819.20;2432.00;;;;;;5059798;28;20074;-82
2021/06/23 07:37:09;;;;;;;25.65;7.45;;;819.40;2432.00;;;;;;5076494;28;20023;-76
2021/06/23 07:39:36;;;;;;;29.30;7.55;;;819.60;2432.00;;;;;;5076114;28;20040;-74
2021/06/23 07:42:04;;;;;;;26.40;7.85;;;819.80;2432.00;;;;;;5076035;28;20017;-75
2021/06/23 07:44:44;;;;;;;27.98;8.85;;;819.80;2432.00;;;;;;5075833;28;20479;-74
2021/06/23 07:47:16;;;;;;;;;;;820.00;2432.00;;;;;;5076345;28;20497;-74
2021/06/23 07:49:43;;;;;;;27.92;9.48;;;845.00;2432.00;;;;;;5054027;28;19994;-73
2021/06/23 07:52:32;;;;;;;32.08;8.35;;;845.50;2432.00;;;;;;5075074;28;20025;-72
2021/06/23 08:11:10;;;;;;;29.15;7.60;;;870.60;2432.00;;;;;;5055406;28;20402;-73
2021/06/23 08:13:36;;;;;;;28.42;7.65;;;845.70;2432.00;;;;;;5069361;28;20029;-73
2021/06/23 08:16:02;;;;;;;26.63;7.70;;;870.70;2432.00;;;;;;5075119;28;20360;-74
2021/06/23 08:18:28;;;;;;;26.42;7.20;;;870.90;2432.00;;;;;;5075157;28;20025;-73
2021/06/23 08:20:53;;;;;;;24.25;6.45;;;871.20;2432.00;;;;;;5075352;28;20028;-73
2021/06/23 08:23:19;;;;;;;32.22;7.25;;;896.10;2432.00;;;;;;5075220;28;20479;-74
2021/06/23 08:25:45;;;;;;;26.30;8.32;;;896.40;2432.00;;;;;;5074536;28;20024;-74
2021/06/23 08:28:11;;;;;;;26.00;7.45;;;896.80;2432.00;;;;;;5075022;28;20024;-74
2021/06/23 08:30:37;;;;;;;30.50;9.88;;;921.70;2432.00;;;;;;5074946;28;20032;-74
2021/06/23 08:33:04;;;;;;;26.95;7.85;;;922.00;2432.00;;;;;;5074819;28;20023;-74
2021/06/23 08:35:29;;;;;;;33.78;7.93;;;922.00;2432.00;;;;;;5075123;28;20176;-73
2021/06/23 08:37:55;;;;;;;38.80;10.07;;;922.00;2432.00;;;;;;5074623;28;20523;-75
2021/06/23 08:40:22;;;;;;;39.50;9.75;;;922.30;2432.00;;;;;;5074195;28;20071;-73
2021/06/23 08:42:47;;;;;;;34.42;10.18;;;922.50;2432.00;;;;;;5073796;28;20024;-74
2021/06/23 08:45:14;;;;;;;46.40;9.32;;;947.20;2432.00;;;;;;5075169;28;20036;-74
2021/06/23 08:47:45;;;;;;;37.88;8.35;;;947.20;2432.00;;;;;;5074387;28;20028;-74
2021/06/23 08:50:13;;;;;;;33.15;8.18;;;922.00;2432.00;;;;;;5074424;28;20020;-74
2021/06/23 08:52:39;;;;;;;32.90;8.20;;;922.50;2432.00;;;;;;5074415;28;20029;-74
2021/06/23 08:55:06;;;;;;;32.22;7.55;;;922.50;2432.00;;;;;;5074685;28;20443;-75
2021/06/23 08:57:35;;;;;;;27.65;7.00;;;947.20;2432.00;;;;;;5067233;28;20025;-75
2021/06/23 09:00:07;;;;;;;32.83;7.40;;;947.50;2432.00;;;;;;5069084;28;20386;-73
2021/06/23 09:02:34;;;;;;;34.15;7.95;;;947.40;2432.00;;;;;;5074565;28;20051;-75
2021/06/23 09:05:06;;;;;;;26.20;7.22;;;947.30;2432.00;;;;;;5073849;28;20434;-75
2021/06/23 09:07:58;;;;;;;32.25;8.18;;;947.50;2432.00;;;;;;5074178;28;20125;-73
2021/06/23 09:10:24;;;;;;;28.45;7.63;;;947.80;2432.00;;;;;;5063655;28;20453;-74
2021/06/23 09:13:08;;;;;;;26.63;7.20;;;948.10;2406.40;;;;;;5074374;28;20013;-73
2021/06/23 09:15:46;;;;;;;24.48;6.80;;;972.90;2406.40;;;;;;5073468;28;20503;-75
2021/06/23 09:18:14;;;;;;;31.52;7.72;;;972.90;2406.40;;;;;;5073840;28;20032;-74
2021/06/23 09:20:41;;;;;;;30.95;7.07;;;973.10;2329.60;;;;;;5073907;28;20021;-75
2021/06/23 09:23:07;;;;;;;20.85;6.57;;;973.00;2355.20;;;;;;5073083;28;20081;-73
2021/06/23 09:25:34;;;;;;;26.02;7.50;;;973.20;2329.60;;;;;;5064373;28;20029;-74
2021/06/23 09:28:02;;;;;;;29.27;7.13;;;973.30;2304.00;;;;;;5070156;28;20081;-73
2021/06/23 09:30:28;;;;;;;25.63;6.90;;;973.30;2252.80;;;;;;5073360;28;20024;-76
2021/06/23 09:33:15;;;;;;;22.98;6.93;;;973.30;2278.40;;;;;;5072470;28;20379;-76
2021/06/23 09:35:44;;;;;;;26.85;7.85;;;973.50;2252.80;;;;;;5073536;28;20474;-74
2021/06/23 09:38:48;;;;;;;24.38;6.40;;;973.50;2227.20;;;;;;5072507;28;20024;-73
2021/06/23 09:41:20;;;;;;;19.55;6.35;;;973.40;2252.80;;;;;;5072919;28;20082;-73
2021/06/23 09:43:49;;;;;;;23.90;6.65;;;973.30;2227.20;;;;;;5073686;28;20478;-74
2021/06/23 09:46:26;;;;;;;30.50;7.83;;;973.30;2176.00;;;;;;5071538;28;20075;-74
2021/06/23 09:49:04;;;;;;;28.05;7.78;;;973.30;2201.60;;;;;;5069900;28;20028;-74
2021/06/23 09:51:38;;;;;;;21.73;6.93;;;973.30;2176.00;;;;;;5073127;28;20021;-78
2021/06/23 09:54:04;;;;;;;26.65;6.80;;;973.00;2227.20;;;;;;5072592;28;20495;-77
2021/06/23 09:56:43;;;;;;;26.90;7.25;;;973.20;2227.20;;;;;;5072768;28;20112;-77
2021/06/23 09:59:17;;;;;;;29.55;7.45;;;973.30;2227.20;;;;;;5060276;28;20024;-77
2021/06/23 10:01:43;;;;;;;23.05;7.13;;;973.50;2227.20;;;;;;5073088;28;20386;-77
2021/06/23 10:04:09;;;;;;;26.85;7.70;;;973.60;2201.60;;;;;;5072718;28;20021;-76
2021/06/23 10:06:43;;;;;;;24.92;7.22;;;973.70;2176.00;;;;;;5073139;28;20108;-76
2021/06/23 10:09:26;;;;;;;23.85;7.22;;;973.70;2150.40;;;;;;5073356;28;20036;-76
2021/06/23 10:12:01;;;;;;;27.48;7.57;;;973.60;2150.40;;;;;;5058608;28;20098;-77
2021/06/23 10:14:30;;;;;;;25.23;7.25;;;973.70;2150.40;;;;;;5071236;28;20107;-76
2021/06/23 10:16:59;;;;;;;20.70;7.18;;;973.30;2150.40;;;;;;5073005;28;20020;-77
2021/06/23 10:19:26;;;;;;;32.03;7.57;;;973.20;2201.60;;;;;;5072509;28;20025;-78
2021/06/23 10:21:54;;;;;;;29.98;7.07;;;973.20;2150.40;;;;;;5072630;28;20542;-78
2021/06/23 10:24:20;;;;;;;27.95;7.60;;;973.10;2150.40;;;;;;5072335;28;20044;-80
2021/06/23 10:26:47;;;;;;;30.75;7.63;;;973.20;2150.40;;;;;;5064931;28;20479;-79
2021/06/23 10:29:15;;;;;;;28.20;7.20;;;973.20;2176.00;;;;;;5061192;28;20103;-78
2021/06/23 10:31:42;;;;;;;26.13;7.22;;;973.50;2176.00;;;;;;5072108;28;20012;-77
2021/06/23 10:34:09;;;;;;;28.67;6.80;;;973.70;2124.80;;;;;;5054213;28;20447;-78
2021/06/23 10:36:35;;;;;;;23.27;6.07;;;998.40;2124.80;;;;;;5072249;28;20038;-70
2021/06/23 10:39:04;;;;;;;22.33;6.40;;;998.60;2150.40;;;;;;5072889;28;20036;-76
2021/06/23 10:41:35;;;;;;;21.83;6.82;;;998.60;2099.20;;;;;;5072077;28;20052;-74
2021/06/23 10:44:25;;;;;;;27.35;7.75;;;998.60;2099.20;;;;;;5059556;28;20059;-76
2021/06/23 10:46:58;;;;;;;29.58;7.13;;;998.60;2099.20;;;;;;5061832;28;20487;-77
2021/06/23 10:49:43;;;;;;;21.48;7.00;;;998.40;2099.20;;;;;;5071988;28;20025;-77
2021/06/23 10:52:21;;;;;;;29.60;6.88;;;973.70;2048.00;;;;;;5071245;28;20024;-76
2021/06/23 10:54:47;;;;;;;30.13;7.07;;;973.00;2048.00;;;;;;5071664;28;20025;-78
2021/06/23 10:57:41;;;;;;;29.40;7.03;;;947.70;2073.60;;;;;;5068517;28;20463;-77
2021/06/23 11:00:20;;;;;;;28.65;6.63;;;973.10;2124.80;;;;;;5056905;28;20033;-77
2021/06/23 11:02:48;;;;;;;;;;;973.10;2150.40;;;;;;5071983;28;20024;-75
2021/06/23 11:05:17;;;;;;;30.15;6.90;;;973.40;2099.20;;;;;;5071090;28;19910;-77
2021/06/23 11:07:48;;;;;;;28.08;6.68;;;973.50;2048.00;;;;;;5071127;28;20031;-76
2021/06/23 11:10:17;;;;;;;32.53;7.22;;;973.30;2048.00;;;;;;5062142;28;20496;-73
2021/06/23 11:12:46;;;;;;;27.33;6.85;;;973.40;2048.00;;;;;;5064510;28;20495;-73
2021/06/23 11:15:25;;;;;;;26.10;7.65;;;973.70;1996.80;;;;;;5059356;28;20013;-75
2021/06/23 11:17:54;;;;;;;26.90;6.88;;;998.40;2073.60;;;;;;5069759;28;20531;-73
2021/06/23 11:20:20;;;;;;;30.65;6.75;;;998.40;2022.40;;;;;;5064289;28;20113;-75
2021/06/23 11:22:54;;;;;;;28.98;7.65;;;998.50;2022.40;;;;;;5063534;28;20505;-81
2021/06/23 11:25:25;;;;;;;28.52;7.13;;;998.60;2022.40;;;;;;5070909;28;20032;-86
2021/06/23 11:28:12;;;;;;;24.10;7.40;;;973.70;1971.20;;;;;;5071610;28;20017;-85
2021/06/23 11:30:53;;;;;;;22.77;7.53;;;998.40;2048.00;;;;;;5070750;28;20107;-75
2021/06/23 11:33:27;;;;;;;25.50;7.13;;;998.40;2022.40;;;;;;5063438;28;20360;-74
2021/06/23 11:36:08;;;;;;;25.42;6.85;;;998.50;2022.40;;;;;;5071726;28;20509;-75
2021/06/23 11:38:34;;;;;;;24.33;6.95;;;998.70;1996.80;;;;;;5071950;28;20146;-74
2021/06/23 11:41:03;;;;;;;27.52;7.15;;;998.60;1996.80;;;;;;5071702;28;20052;-75
2021/06/23 11:43:29;;;;;;;33.22;7.38;;;998.80;1996.80;;;;;;5064570;28;20386;-75
2021/06/23 11:45:55;;;;;;;25.20;7.10;;;998.70;1945.60;;;;;;5070964;28;20025;-75
2021/06/23 11:48:23;;;;;;;29.50;7.38;;;973.70;1971.20;;;;;;5071387;28;20079;-75
2021/06/23 11:50:50;;;;;;;25.80;7.50;;;973.60;1971.20;;;;;;5071246;28;20024;-83
2021/06/23 11:53:18;;;;;;;32.72;8.32;;;973.60;1971.20;;;;;;5053731;28;20026;-75
2021/06/23 11:55:45;;;;;;;24.10;6.70;;;973.70;1996.80;;;;;;5071253;28;20013;-75
2021/06/23 11:58:11;;;;;;;25.70;7.15;;;998.70;1996.80;;;;;;5062288;28;20386;-75
2021/06/23 12:00:39;;;;;;;30.55;7.57;;;998.50;1945.60;;;;;;5071580;28;20032;-84
2021/06/23 12:03:09;;;;;;;30.98;7.55;;;998.80;1971.20;;;;;;5053749;28;20032;-78
2021/06/23 12:05:36;;;;;;;31.73;7.45;;;998.70;1945.60;;;;;;5071423;28;20024;-74
2021/06/23 12:08:02;;;;;;;25.77;7.25;;;999.00;1894.40;;;;;;5071487;28;20029;-75
2021/06/23 12:10:30;;;;;;;27.55;6.65;;;999.20;1920.00;;;;;;5070728;28;20047;-74
2021/06/23 12:12:57;;;;;;;28.52;6.63;;;1024.00;1894.40;;;;;;5071534;28;20039;-75
2021/06/23 12:15:25;;;;;;;28.52;6.85;;;999.30;1843.20;;;;;;5071383;28;20041;-73
2021/06/23 12:17:53;;;;;;;29.98;7.07;;;999.00;1868.80;;;;;;5072092;28;20056;-75
2021/06/23 12:20:20;;;;;;;29.30;6.53;;;998.80;1817.60;;;;;;5075255;28;20444;-73
2021/06/23 12:22:53;;;;;;;26.33;7.35;;;998.90;1792.00;;;;;;5074384;28;20028;-74
2021/06/23 12:25:18;;;;;;;24.73;6.88;;;999.20;1843.20;;;;;;5074991;28;20089;-74
2021/06/23 12:27:44;;;;;;;31.50;7.47;;;1024.10;1843.20;;;;;;5073533;28;20029;-74
2021/06/23 12:30:10;;;;;;;31.00;7.20;;;1024.20;1817.60;;;;;;5074442;28;20059;-76
2021/06/23 12:32:36;;;;;;;21.42;6.43;;;1024.20;1792.00;;;;;;5074028;28;20017;-76
2021/06/23 12:35:04;;;;;;;26.17;7.32;;;1024.20;1792.00;;;;;;5074697;28;20279;-74